Time;durP1;ratioP1;P1;durP2;ratioP2;P2;SDS_P1;SDS_P2;PMS_P1;PMS_P2;Temp;Humidity;BMP_temperature;BMP_pressure;BME280_temperature;BME280_humidity;BME280_pressure;Samples;Min_cycle;Max_cycle;Signal;HPM_P1;HPM_P2
2021/12/28 00:01:02;;;;;;;35.25;13.95;;;-7.80;98.90;;;-7.80;99.16;99756.72;5004831;28;118614;-78
2021/12/28 00:03:31;;;;;;;33.55;12.65;;;-7.80;99.50;;;-7.72;99.60;99764.50;4986887;28;115807;-78
2021/12/28 00:06:00;;;;;;;28.90;12.38;;;-7.80;99.90;;;-7.68;99.56;99765.78;4986401;28;129810;-78
2021/12/28 00:08:29;;;;;;;31.00;12.63;;;-7.80;99.90;;;-7.77;99.46;99756.34;4988480;28;129579;-79
2021/12/28 00:10:58;;;;;;;29.38;11.52;;;-7.80;99.90;;;-7.76;100.00;99768.50;4986725;28;118797;-80
2021/12/28 00:13:29;;;;;;;33.03;12.77;;;-7.70;99.90;;;-7.74;99.97;99766.53;4988901;28;115546;-79
2021/12/28 00:16:24;;;;;;;38.20;13.95;;;-7.70;99.90;;;-7.81;100.00;99765.63;4988281;28;129139;-79
2021/12/28 00:18:52;;;;;;;38.65;13.77;;;-7.70;99.90;;;-7.70;99.50;99757.22;4987813;28;128652;-78
2021/12/28 00:21:20;;;;;;;31.58;12.75;;;-7.80;99.90;;;-7.51;99.12;99766.38;4986400;28;118991;-78
2021/12/28 00:23:49;;;;;;;42.50;13.63;;;-7.70;99.90;;;-7.63;99.39;99767.88;4986588;28;115752;-78
2021/12/28 00:26:20;;;;;;;35.42;13.20;;;-7.70;99.90;;;-7.63;99.53;99762.59;5004571;28;129242;-78
2021/12/28 00:28:48;;;;;;;33.70;12.77;;;-7.70;99.90;;;-7.64;99.22;99767.03;4988005;28;129102;-78
2021/12/28 00:31:19;;;;;;;37.45;14.57;;;-7.70;99.90;;;-7.65;99.28;99759.31;4988098;28;118120;-78
2021/12/28 00:33:48;;;;;;;30.50;13.90;;;-7.80;99.90;;;-7.61;98.58;99756.13;4987888;28;115274;-79
2021/12/28 00:36:17;;;;;;;36.83;15.05;;;-7.70;99.90;;;-7.65;99.10;99764.59;4955245;28;129008;-78
2021/12/28 00:38:46;;;;;;;32.58;13.05;;;-7.80;99.90;;;-7.80;99.13;99775.19;4985956;28;130269;-80
2021/12/28 00:41:14;;;;;;;30.05;12.50;;;-7.80;99.80;;;-7.72;98.70;99775.06;4988189;28;117805;-80
2021/12/28 00:43:44;;;;;;;33.45;13.43;;;-7.80;99.90;;;-7.72;98.39;99772.41;4970850;28;115125;-80
2021/12/28 00:46:13;;;;;;;37.60;13.80;;;-7.80;99.90;;;-7.75;98.31;99769.34;4971008;28;129671;-80
2021/12/28 00:48:43;;;;;;;36.38;14.48;;;-7.80;99.50;;;-7.65;98.26;99768.06;4971013;28;129509;-80
2021/12/28 00:51:12;;;;;;;41.15;14.60;;;-7.80;99.60;;;-7.58;97.90;99773.38;5004458;28;118256;-79
2021/12/28 00:53:41;;;;;;;36.95;13.70;;;-7.80;99.90;;;-7.59;97.63;99769.13;5005313;28;115488;-79
2021/12/28 00:56:10;;;;;;;43.83;14.82;;;-7.80;99.60;;;-7.71;97.76;99771.44;4990260;28;129127;-80
2021/12/28 00:58:39;;;;;;;38.40;14.15;;;-7.80;99.10;;;-7.70;97.89;99766.97;4986882;28;129841;-79
2021/12/28 01:01:09;;;;;;;41.15;14.23;;;-7.80;99.10;;;-7.64;96.98;99764.41;4986613;28;118713;-79
2021/12/28 01:03:38;;;;;;;39.40;13.75;;;-7.80;98.70;;;-7.71;97.10;99768.78;4982962;28;116523;-79
2021/12/28 01:06:08;;;;;;;36.75;13.27;;;-7.80;98.30;;;-7.80;97.53;99764.63;4987367;28;129596;-78
2021/12/28 01:08:38;;;;;;;39.60;14.65;;;-7.90;97.60;;;-7.83;97.50;99752.63;4986325;28;129368;-78
2021/12/28 01:11:07;;;;;;;36.55;14.00;;;-7.90;97.10;;;-7.70;96.70;99759.88;5001166;28;118965;-79
2021/12/28 01:13:36;;;;;;;39.85;15.27;;;-7.90;97.30;;;-7.65;96.50;99760.16;4987606;28;115012;-78
2021/12/28 01:16:06;;;;;;;42.05;15.95;;;-7.90;97.30;;;-7.70;96.51;99757.22;4987407;28;129690;-79
2021/12/28 01:18:35;;;;;;;40.25;15.50;;;-7.90;96.80;;;-7.65;96.32;99760.16;4987132;28;128841;-78
2021/12/28 01:21:03;;;;;;;40.22;14.95;;;-7.90;96.60;;;-7.56;95.96;99763.47;4985487;28;118618;-80
2021/12/28 01:23:33;;;;;;;37.53;15.18;;;-7.80;96.80;;;-7.77;96.09;99756.34;4985679;28;115536;-80
2021/12/28 01:26:02;;;;;;;41.10;15.93;;;-7.90;95.10;;;-7.96;96.71;99758.56;4986792;28;129318;-77
2021/12/28 01:28:31;;;;;;;43.17;16.45;;;-7.90;94.40;;;-8.06;97.14;99758.03;4986758;28;129340;-77
2021/12/28 01:31:01;;;;;;;45.67;18.75;;;-8.00;94.10;;;-7.87;97.01;99769.00;4987435;28;118094;-77
2021/12/28 01:33:31;;;;;;;52.85;21.33;;;-8.00;94.50;;;-7.90;96.51;99758.81;4985475;28;115768;-77
2021/12/28 01:35:59;;;;;;;57.85;24.30;;;-8.00;93.80;;;-7.80;96.72;99751.47;4987388;28;130181;-80
2021/12/28 01:38:28;;;;;;;39.88;16.85;;;-8.00;93.90;;;-7.76;95.20;99750.06;4970198;28;129119;-79
2021/12/28 01:40:59;;;;;;;38.08;17.17;;;-8.00;93.70;;;-7.79;95.19;99750.44;4987262;28;117924;-80
2021/12/28 01:43:28;;;;;;;49.33;17.25;;;-8.00;93.30;;;-7.87;94.96;99753.19;4985397;28;115968;-79
2021/12/28 01:46:00;;;;;;;40.15;15.73;;;-8.10;92.60;;;-7.91;94.99;99760.66;5003473;28;129295;-79
2021/12/28 01:48:31;;;;;;;42.83;15.57;;;-8.10;91.90;;;-7.89;94.23;99757.84;4970445;28;129162;-79
2021/12/28 01:51:05;;;;;;;45.22;16.55;;;-8.20;91.60;;;-8.04;94.71;99757.84;4987133;28;118802;-80
2021/12/28 01:53:55;;;;;;;43.10;17.52;;;-8.20;90.80;;;-8.04;95.18;99758.69;4984986;28;115646;-79
2021/12/28 01:56:30;;;;;;;47.60;17.02;;;-8.20;91.00;;;-8.08;95.40;99754.78;4984668;28;129786;-79
2021/12/28 01:58:59;;;;;;;46.33;17.80;;;-8.20;90.70;;;-7.90;95.15;99756.19;4984580;28;129444;-79
2021/12/28 02:01:29;;;;;;;38.88;16.88;;;-8.20;91.20;;;-7.78;94.70;99754.72;4987313;28;118422;-79
2021/12/28 02:03:57;;;;;;;42.78;18.85;;;-8.10;91.40;;;-7.71;95.06;99749.50;4984090;28;116076;-79
2021/12/28 02:06:26;;;;;;;44.08;16.98;;;-8.10;91.40;;;-7.71;94.53;99754.78;4983807;28;129939;-79
2021/12/28 02:08:57;;;;;;;46.10;17.90;;;-8.10;91.20;;;-7.62;94.63;99754.50;4982226;28;130129;-80
2021/12/28 02:11:27;;;;;;;58.47;19.65;;;-8.00;91.50;;;-7.59;94.66;99764.69;4981595;28;119041;-80
2021/12/28 02:13:56;;;;;;;44.33;17.98;;;-8.00;91.80;;;-7.56;94.02;99767.94;4985650;28;114740;-79
2021/12/28 02:16:24;;;;;;;54.70;19.08;;;-8.00;91.50;;;-7.60;94.42;99762.22;4982794;28;129644;-80
2021/12/28 02:18:53;;;;;;;53.25;18.50;;;-7.90;91.40;;;-7.79;94.89;99761.81;4982717;28;129450;-79
2021/12/28 02:21:24;;;;;;;51.65;19.85;;;-8.00;90.70;;;-7.71;95.11;99760.88;4980874;28;118814;-81
2021/12/28 02:23:53;;;;;;;42.33;17.17;;;-8.00;91.30;;;-7.70;95.39;99762.50;4983414;28;116091;-80
2021/12/28 02:26:22;;;;;;;49.72;18.60;;;-8.00;90.90;;;-7.68;94.86;99760.53;4984395;28;130002;-80
2021/12/28 02:28:50;;;;;;;44.03;17.30;;;-8.00;91.20;;;-7.74;94.96;99766.53;4986076;28;129355;-80
2021/12/28 02:31:19;;;;;;;41.95;17.65;;;-8.00;91.00;;;-7.75;94.70;99764.09;4984426;28;119013;-79
2021/12/28 02:33:49;;;;;;;41.17;16.92;;;-8.00;91.10;;;-7.73;95.01;99764.69;5000261;28;116186;-80
2021/12/28 02:36:19;;;;;;;50.72;19.70;;;-8.00;91.10;;;-7.77;95.14;99765.06;4984219;28;129759;-80
2021/12/28 02:38:50;;;;;;;50.47;18.17;;;-8.00;90.70;;;-7.78;95.37;99770.53;4984061;28;129379;-80
2021/12/28 02:41:19;;;;;;;48.33;19.30;;;-8.00;91.20;;;-7.70;95.14;99767.78;4986290;28;118570;-80
2021/12/28 02:43:49;;;;;;;49.42;19.67;;;-8.00;91.60;;;-7.74;95.00;99765.69;4984326;28;115761;-80
2021/12/28 02:46:18;;;;;;;49.55;19.30;;;-8.00;91.30;;;-7.76;95.02;99763.25;4984029;28;129765;-80
2021/12/28 02:48:47;;;;;;;41.97;18.83;;;-8.00;91.10;;;-7.67;94.73;99762.13;5002452;28;128620;-80
2021/12/28 02:51:17;;;;;;;36.17;15.65;;;-8.00;91.50;;;-7.57;94.83;99761.00;4986609;28;118804;-80
2021/12/28 02:53:49;;;;;;;45.88;16.63;;;-8.00;91.70;;;-7.59;94.64;99762.03;4983951;28;115364;-80
2021/12/28 02:56:21;;;;;;;44.28;18.38;;;-7.90;91.70;;;-7.60;94.10;99757.75;4983695;28;129461;-80
2021/12/28 02:58:52;;;;;;;46.30;17.50;;;-8.00;91.50;;;-7.57;94.42;99751.31;4984464;28;128935;-80
2021/12/28 03:01:24;;;;;;;40.83;17.10;;;-8.00;91.50;;;-7.58;94.28;99749.66;4983924;28;118750;-79
2021/12/28 03:03:56;;;;;;;42.42;16.25;;;-7.90;91.30;;;-7.56;94.47;99752.91;4984363;28;115679;-79
2021/12/28 03:06:26;;;;;;;46.67;17.88;;;-8.00;91.40;;;-7.51;94.36;99752.34;4985459;28;129411;-80
2021/12/28 03:08:59;;;;;;;49.70;19.17;;;-7.90;91.40;;;-7.59;93.58;99748.84;4985007;28;130153;-80
2021/12/28 03:11:31;;;;;;;44.63;17.83;;;-7.90;90.80;;;-7.78;93.14;99744.19;4983953;28;118523;-81
2021/12/28 03:14:03;;;;;;;54.45;19.73;;;-8.00;90.00;;;-7.83;93.31;99746.56;4984356;28;116207;-80
2021/12/28 03:16:33;;;;;;;54.10;22.40;;;-8.10;89.00;;;-8.17;94.65;99738.25;4982539;28;130170;-80
2021/12/28 03:19:03;;;;;;;54.65;21.80;;;-8.30;85.60;;;-8.13;94.98;99738.72;4983832;28;130307;-79
2021/12/28 03:21:35;;;;;;;45.10;18.27;;;-8.30;87.60;;;-8.11;95.24;99749.88;5002793;28;119055;-79
2021/12/28 03:24:06;;;;;;;48.15;18.20;;;-8.20;88.20;;;-8.11;95.18;99736.69;4985746;28;114806;-79
2021/12/28 03:26:40;;;;;;;49.38;21.15;;;-8.30;88.70;;;-8.08;95.47;99744.25;4981721;28;129928;-80
2021/12/28 03:29:09;;;;;;;53.38;21.80;;;-8.30;89.50;;;-8.07;94.99;99748.50;4998823;28;129585;-80
2021/12/28 03:31:38;;;;;;;57.70;21.77;;;-8.30;89.80;;;-8.05;94.96;99745.69;4983897;28;119295;-81
2021/12/28 03:34:07;;;;;;;58.50;23.27;;;-8.30;90.20;;;-8.08;95.60;99749.50;4987549;28;115761;-81
2021/12/28 03:36:35;;;;;;;59.50;22.58;;;-8.30;90.00;;;-8.06;95.11;99747.50;4985732;28;129590;-80
2021/12/28 03:39:06;;;;;;;62.40;21.33;;;-8.30;90.30;;;-8.04;94.69;99756.06;4985570;28;129490;-80
2021/12/28 03:41:36;;;;;;;47.83;18.35;;;-8.30;90.50;;;-8.13;94.60;99751.88;4987261;28;118730;-79
2021/12/28 03:44:06;;;;;;;51.40;18.35;;;-8.30;90.00;;;-8.21;95.20;99754.59;4990755;28;114582;-80
2021/12/28 03:46:35;;;;;;;47.60;18.20;;;-8.30;89.20;;;-8.30;95.02;99759.16;4986348;28;129834;-79
2021/12/28 03:49:04;;;;;;;47.70;17.90;;;-8.40;89.40;;;-8.23;95.18;99754.78;4986704;28;129897;-79
2021/12/28 03:51:33;;;;;;;50.35;18.48;;;-8.40;89.50;;;-8.20;95.58;99756.22;4972396;28;118436;-79
2021/12/28 03:54:02;;;;;;;51.20;18.67;;;-8.40;89.70;;;-8.31;95.16;99753.06;4989103;28;115285;-79
2021/12/28 03:56:32;;;;;;;43.67;17.90;;;-8.40;87.80;;;-8.40;95.68;99756.78;4988383;28;129479;-78
2021/12/28 03:59:01;;;;;;;49.88;21.63;;;-8.40;88.70;;;-8.25;95.44;99753.34;5004885;28;129038;-79
2021/12/28 04:01:30;;;;;;;51.85;25.45;;;-8.40;89.70;;;-8.59;97.24;99762.63;5005222;28;118178;-79
2021/12/28 04:03:59;;;;;;;49.75;23.52;;;-8.40;88.60;;;-8.38;96.72;99759.22;4986883;28;116016;-80
2021/12/28 04:06:29;;;;;;;46.30;19.40;;;-8.40;90.00;;;-8.45;96.71;99753.91;4988182;28;129059;-78
2021/12/28 04:09:00;;;;;;;43.33;16.35;;;-8.40;88.60;;;-8.37;96.83;99751.16;4988089;28;129725;-80
2021/12/28 04:11:29;;;;;;;35.97;16.45;;;-8.40;89.80;;;-8.44;95.76;99750.28;4985303;28;117964;-80
2021/12/28 04:14:06;;;;;;;39.75;15.88;;;-8.40;88.70;;;-8.49;96.44;99747.38;4967028;28;115981;-79
2021/12/28 04:16:36;;;;;;;42.17;17.60;;;-8.40;88.10;;;-8.42;96.51;99745.63;4968462;28;128787;-80
2021/12/28 04:19:06;;;;;;;42.00;17.73;;;-8.40;89.00;;;-8.54;96.09;99747.09;4984890;28;129377;-82
2021/12/28 04:21:36;;;;;;;43.83;18.05;;;-8.50;86.50;;;-8.41;95.99;99744.63;4979822;28;118099;-81
2021/12/28 04:24:06;;;;;;;41.97;16.67;;;-8.50;87.70;;;-8.41;95.64;99739.34;4955961;28;113653;-81
2021/12/28 04:26:34;;;;;;;33.65;13.07;;;-8.50;86.60;;;-8.37;94.78;99745.88;4955765;28;128827;-79
2021/12/28 04:29:05;;;;;;;28.52;11.60;;;-8.50;86.30;;;-8.34;94.36;99740.25;4947977;28;129581;-79
2021/12/28 04:31:34;;;;;;;36.50;12.55;;;-8.50;86.10;;;-8.41;93.95;99742.00;4966274;28;118724;-80
2021/12/28 04:34:03;;;;;;;27.35;12.10;;;-8.60;85.40;;;-8.79;93.29;99744.69;4966913;28;114923;-80
2021/12/28 04:36:32;;;;;;;32.53;13.15;;;-8.70;82.40;;;-8.82;93.81;99750.31;4964473;28;129540;-80
2021/12/28 04:39:02;;;;;;;28.48;11.57;;;-8.90;81.10;;;-8.79;93.40;99739.44;4966055;28;130588;-81
2021/12/28 04:41:34;;;;;;;32.08;12.73;;;-9.00;81.00;;;-8.91;93.32;99738.25;4968165;28;119326;-82
2021/12/28 04:44:05;;;;;;;29.10;12.98;;;-9.20;79.50;;;-9.05;93.51;99727.53;4984980;28;115654;-82
2021/12/28 04:46:33;;;;;;;25.88;11.63;;;-9.20;78.90;;;-9.00;93.74;99734.06;4985227;28;129645;-81
2021/12/28 04:49:02;;;;;;;33.67;13.07;;;-9.30;78.90;;;-9.07;93.81;99718.16;4968505;28;129795;-81
2021/12/28 04:51:30;;;;;;;29.27;12.05;;;-9.20;79.10;;;-9.14;94.90;99728.59;4967849;28;118629;-78
2021/12/28 04:54:06;;;;;;;33.22;13.50;;;-9.20;79.80;;;-9.06;94.89;99725.88;4965955;28;115906;-76
2021/12/28 04:56:34;;;;;;;33.38;13.88;;;-9.20;80.40;;;-9.08;94.33;99735.78;4966488;28;130316;-77
2021/12/28 04:59:04;;;;;;;32.15;13.52;;;-9.20;80.90;;;-9.00;94.91;99744.59;4951338;28;129173;-76
2021/12/28 05:01:33;;;;;;;39.22;14.63;;;-9.10;81.40;;;-8.86;93.91;99746.44;4965732;28;118758;-76
2021/12/28 05:04:02;;;;;;;33.40;13.73;;;-9.00;82.10;;;-8.73;94.41;99749.25;4964746;28;116725;-76
2021/12/28 05:06:31;;;;;;;35.45;14.13;;;-9.00;82.50;;;-8.65;93.68;99752.81;4950228;28;129056;-76
2021/12/28 05:09:00;;;;;;;38.78;14.10;;;-9.00;82.50;;;-8.62;94.29;99747.19;4967096;28;129646;-76
2021/12/28 05:11:29;;;;;;;36.70;14.07;;;-8.80;82.80;;;-8.64;93.98;99743.94;4965175;28;118870;-76
2021/12/28 05:13:59;;;;;;;41.72;17.23;;;-9.00;82.60;;;-8.88;94.68;99748.41;4966875;28;114747;-76
2021/12/28 05:16:30;;;;;;;46.78;17.02;;;-9.00;83.10;;;-8.78;94.41;99750.81;4966478;28;129584;-76
2021/12/28 05:18:59;;;;;;;44.28;16.83;;;-9.00;83.70;;;-8.70;94.96;99746.25;4966822;28;128708;-76
2021/12/28 05:21:29;;;;;;;39.08;15.57;;;-9.00;84.10;;;-8.68;94.22;99733.75;4965939;28;118587;-76
2021/12/28 05:23:57;;;;;;;42.38;16.75;;;-8.90;84.20;;;-8.67;94.23;99740.63;4965871;28;116141;-77
2021/12/28 05:26:26;;;;;;;42.50;17.13;;;-8.90;84.00;;;-8.73;94.25;99745.81;4983638;28;129566;-77
2021/12/28 05:29:07;;;;;;;41.28;15.48;;;-9.00;83.40;;;-8.74;93.82;99742.38;4965859;28;129925;-82
2021/12/28 05:31:41;;;;;;;48.65;17.80;;;-9.00;83.50;;;-8.86;94.04;99741.16;4951568;28;118179;-82
2021/12/28 05:34:09;;;;;;;44.85;17.38;;;-9.00;82.80;;;-8.92;94.49;99747.16;4964384;28;116133;-82
2021/12/28 05:36:38;;;;;;;44.88;16.23;;;-9.10;82.30;;;-8.98;94.85;99747.84;4967367;28;129578;-82
2021/12/28 05:39:08;;;;;;;41.97;16.23;;;-9.10;82.50;;;-9.15;95.01;99742.72;4980057;28;129853;-82
2021/12/28 05:41:36;;;;;;;46.80;17.77;;;-9.10;82.80;;;-9.01;95.08;99737.69;4967228;28;118677;-81
2021/12/28 05:44:05;;;;;;;45.67;18.02;;;-9.10;83.70;;;-9.09;95.17;99741.22;4967382;28;114861;-81
2021/12/28 05:46:34;;;;;;;45.55;17.95;;;-9.10;84.20;;;-9.11;96.30;99736.13;4965432;28;129601;-82
2021/12/28 05:49:05;;;;;;;44.60;18.27;;;-9.10;84.10;;;-8.96;95.77;99740.59;4964208;28;130465;-81
2021/12/28 05:51:33;;;;;;;45.05;17.45;;;-9.00;85.50;;;-8.95;95.31;99737.78;4967153;28;118433;-82
2021/12/28 05:54:02;;;;;;;45.55;18.30;;;-9.00;85.80;;;-8.95;95.74;99745.69;4967466;28;114756;-81
2021/12/28 05:56:31;;;;;;;41.58;18.23;;;-9.00;85.60;;;-8.93;95.77;99748.94;4963233;28;129743;-81
2021/12/28 05:59:02;;;;;;;45.65;18.30;;;-9.00;85.60;;;-8.87;95.51;99752.69;4964793;28;130395;-80
2021/12/28 06:01:31;;;;;;;47.70;18.65;;;-9.00;86.40;;;-8.80;95.16;99765.94;4966450;28;118156;-80
2021/12/28 06:04:07;;;;;;;41.92;15.80;;;-9.00;85.40;;;-8.88;94.65;99758.94;4948569;28;115696;-81
2021/12/28 06:06:36;;;;;;;51.30;17.77;;;-9.00;85.20;;;-8.96;95.16;99757.22;4964848;28;129311;-82
2021/12/28 06:09:05;;;;;;;39.30;15.98;;;-9.00;85.10;;;-8.98;95.45;99753.94;4962870;28;129131;-80
2021/12/28 06:11:34;;;;;;;43.72;15.65;;;-9.10;84.80;;;-9.22;95.78;99758.41;4980603;28;118810;-80
2021/12/28 06:14:02;;;;;;;33.75;14.90;;;-9.10;84.00;;;-9.15;95.85;99760.31;4963154;28;116619;-80
2021/12/28 06:16:32;;;;;;;39.83;15.75;;;-9.20;84.30;;;-9.23;96.13;99755.94;4964825;28;129232;-80
2021/12/28 06:19:00;;;;;;;39.60;16.85;;;-9.20;84.00;;;-9.18;95.36;99756.22;4964203;28;129853;-81
2021/12/28 06:21:31;;;;;;;37.20;16.00;;;-9.20;84.40;;;-9.15;95.45;99752.44;4963739;28;118803;-80
2021/12/28 06:24:01;;;;;;;44.90;16.50;;;-9.30;84.00;;;-9.32;94.86;99757.00;4948615;28;115428;-81
2021/12/28 06:26:30;;;;;;;51.75;17.65;;;-9.30;83.20;;;-9.33;95.63;99755.34;4964554;28;129371;-80
2021/12/28 06:29:00;;;;;;;38.67;16.92;;;-9.20;82.80;;;-9.32;95.33;99751.75;4963049;28;130196;-80
2021/12/28 06:31:29;;;;;;;41.60;17.33;;;-9.30;82.50;;;-9.29;95.21;99756.66;4962380;28;119551;-82
2021/12/28 06:33:58;;;;;;;44.83;17.48;;;-9.20;82.10;;;-9.23;94.49;99755.94;4981891;28;115107;-81
2021/12/28 06:36:27;;;;;;;41.25;16.73;;;-9.40;81.40;;;-9.35;95.00;99757.34;4948361;28;128881;-81
2021/12/28 06:38:58;;;;;;;41.08;17.88;;;-9.40;81.40;;;-9.42;95.43;99758.03;4962385;28;130303;-80
2021/12/28 06:41:26;;;;;;;44.35;18.00;;;-9.40;81.90;;;-9.42;95.67;99758.03;4963122;28;118776;-81
2021/12/28 06:43:55;;;;;;;55.63;19.02;;;-9.40;82.40;;;-9.29;95.15;99764.53;4963672;28;115606;-81
2021/12/28 06:46:23;;;;;;;45.05;19.02;;;-9.40;82.90;;;-9.27;95.30;99765.16;4981832;28;129205;-81
2021/12/28 06:48:52;;;;;;;40.13;17.30;;;-9.40;82.50;;;-9.21;94.98;99769.72;4962341;28;128893;-81
2021/12/28 06:51:21;;;;;;;43.15;17.30;;;-9.40;82.60;;;-9.30;95.04;99766.34;4949356;28;117752;-80
2021/12/28 06:53:52;;;;;;;39.00;15.63;;;-9.40;82.40;;;-9.21;95.27;99769.72;4965474;28;115196;-80
2021/12/28 06:56:23;;;;;;;34.75;14.90;;;-9.10;83.10;;;-9.18;94.87;99772.00;4964635;28;130321;-79
2021/12/28 06:58:52;;;;;;;39.05;15.65;;;-9.30;82.60;;;-9.10;94.12;99771.97;4963103;28;130029;-79
2021/12/28 07:01:20;;;;;;;35.35;14.27;;;-9.30;82.00;;;-9.18;93.97;99773.81;4981332;28;118425;-79
2021/12/28 07:03:49;;;;;;;37.45;16.15;;;-9.40;80.70;;;-9.26;93.89;99779.97;4964578;28;115796;-79
2021/12/28 07:06:18;;;;;;;34.38;14.88;;;-9.40;80.00;;;-9.19;93.68;99773.00;4964447;28;129248;-79
2021/12/28 07:08:47;;;;;;;36.95;15.98;;;-9.40;79.60;;;-9.11;94.04;99785.28;4950748;28;129563;-79
2021/12/28 07:11:16;;;;;;;38.28;15.63;;;-9.40;79.10;;;-9.09;94.05;99783.28;4951820;28;117712;-80
2021/12/28 07:13:47;;;;;;;37.25;15.05;;;-9.40;78.60;;;-9.01;93.27;99779.78;4967835;28;115131;-80
2021/12/28 07:16:15;;;;;;;40.38;16.58;;;-9.30;78.70;;;-8.75;92.88;99784.66;4951043;28;129499;-80
2021/12/28 07:18:43;;;;;;;38.47;15.95;;;-9.20;79.00;;;-8.55;92.07;99784.97;4967606;28;129986;-80
2021/12/28 07:21:13;;;;;;;38.13;15.73;;;-9.10;78.90;;;-8.52;92.27;99789.88;4965986;28;118477;-81
2021/12/28 07:23:42;;;;;;;41.38;15.52;;;-9.00;77.70;;;-8.43;91.21;99788.75;4951966;28;115303;-81
2021/12/28 07:26:10;;;;;;;37.63;15.27;;;-8.90;76.40;;;-8.42;91.58;99773.75;4967325;28;129461;-80
2021/12/28 07:28:39;;;;;;;39.25;15.48;;;-8.90;74.60;;;-8.24;90.73;99784.75;4951185;28;128953;-80
2021/12/28 07:31:09;;;;;;;34.10;14.35;;;-8.80;73.80;;;-7.93;89.68;99782.91;4964436;28;118551;-81
2021/12/28 07:33:38;;;;;;;34.42;14.63;;;-8.70;73.50;;;-7.84;89.36;99787.06;4964566;28;116199;-80
2021/12/28 07:36:07;;;;;;;34.33;13.95;;;-8.60;71.10;;;-8.00;88.38;99781.00;4967129;28;129482;-80
2021/12/28 07:38:35;;;;;;;38.00;17.88;;;-8.60;66.10;;;-7.83;87.37;99783.44;4967058;28;129217;-81
2021/12/28 07:41:04;;;;;;;34.53;15.52;;;-8.60;66.30;;;-7.81;86.72;99776.97;4967569;28;119029;-81
2021/12/28 07:43:33;;;;;;;43.45;17.73;;;-8.60;62.60;;;-7.87;87.02;99776.91;4967843;28;115053;-80
2021/12/28 07:46:02;;;;;;;39.13;17.23;;;-8.70;60.40;;;-7.97;86.65;99775.38;4951218;28;129511;-81
2021/12/28 07:48:32;;;;;;;39.85;18.45;;;-8.70;58.60;;;-8.20;86.25;99777.31;4965580;28;130297;-80
2021/12/28 07:51:01;;;;;;;40.10;18.08;;;-8.90;55.50;;;-8.16;86.35;99774.13;4979685;28;118848;-80
2021/12/28 07:53:37;;;;;;;43.00;18.00;;;-8.90;55.60;;;-8.07;86.63;99782.75;4966557;28;115223;-80
2021/12/28 07:56:06;;;;;;;38.13;16.80;;;-8.90;55.10;;;-7.94;86.37;99776.84;4966741;28;128946;-81
2021/12/28 07:58:35;;;;;;;44.00;17.58;;;-8.80;54.20;;;-7.91;86.15;99770.38;4964945;28;130199;-80
2021/12/28 08:01:04;;;;;;;39.13;16.95;;;-8.70;53.30;;;-7.74;86.12;99766.53;4967011;28;117968;-80
2021/12/28 08:03:34;;;;;;;36.92;18.02;;;-8.60;54.30;;;-7.60;86.13;99773.56;4965485;28;115962;-81
2021/12/28 08:06:03;;;;;;;31.48;14.00;;;-8.40;52.90;;;-7.61;85.92;99771.94;4967218;28;129831;-80
2021/12/28 08:08:31;;;;;;;39.67;15.32;;;-8.40;51.00;;;-7.68;85.80;99771.06;4950042;28;128902;-80
2021/12/28 08:11:00;;;;;;;35.63;15.82;;;-8.40;50.40;;;-7.83;86.85;99770.28;4966811;28;118051;-80
2021/12/28 08:13:29;;;;;;;37.20;15.38;;;-8.50;48.50;;;-7.85;86.63;99764.34;4967180;28;114730;-80
2021/12/28 08:16:01;;;;;;;50.95;16.05;;;-8.50;48.70;;;-7.60;85.88;99763.03;4966490;28;130594;-80
2021/12/28 08:18:29;;;;;;;31.65;15.48;;;-8.40;50.00;;;-7.48;85.78;99759.91;4966757;28;129831;-80
2021/12/28 08:21:00;;;;;;;33.28;14.77;;;-8.30;49.00;;;-7.75;85.87;99759.63;4966325;28;118507;-81
2021/12/28 08:23:28;;;;;;;40.65;15.48;;;-8.40;45.40;;;-7.56;86.20;99757.38;4950734;28;115027;-80
2021/12/28 08:25:57;;;;;;;29.25;13.63;;;-8.30;46.10;;;-7.44;85.06;99753.25;4966412;28;129752;-80
2021/12/28 08:28:26;;;;;;;36.17;17.00;;;-8.30;46.10;;;-7.38;84.08;99755.16;4964483;28;130185;-80
2021/12/28 08:30:56;;;;;;;31.50;14.65;;;-8.20;43.50;;;-7.32;84.39;99754.41;4966923;28;118017;-81
2021/12/28 08:33:28;;;;;;;34.97;13.65;;;-8.30;45.30;;;-7.27;84.02;99756.47;4982459;28;115213;-80
2021/12/28 08:35:57;;;;;;;34.47;15.07;;;-8.30;45.10;;;-7.39;83.36;99753.50;4965299;28;130165;-79
2021/12/28 08:38:28;;;;;;;30.67;14.50;;;-8.40;42.70;;;-7.96;83.84;99753.31;4933762;28;129871;-79
2021/12/28 08:40:57;;;;;;;32.05;14.38;;;-8.50;37.80;;;-7.83;84.19;99757.91;4962954;28;119073;-79
2021/12/28 08:43:25;;;;;;;32.58;15.15;;;-8.50;41.10;;;-7.67;83.96;99761.31;4966273;28;115316;-80
2021/12/28 08:45:54;;;;;;;31.10;15.75;;;-8.50;41.60;;;-7.57;83.73;99755.75;4964824;28;130032;-80
2021/12/28 08:48:23;;;;;;;33.72;15.15;;;-8.40;41.50;;;-7.48;83.47;99759.91;4965652;28;130656;-80
2021/12/28 08:50:52;;;;;;;35.50;14.82;;;-8.40;41.20;;;-7.59;83.62;99762.03;4967570;28;118407;-79
2021/12/28 08:53:32;;;;;;;34.03;15.95;;;-8.40;39.00;;;-7.61;82.87;99755.31;4965808;28;116286;-80
2021/12/28 08:56:01;;;;;;;34.03;14.82;;;-8.40;39.40;;;-7.55;83.83;99756.41;4965529;28;130304;-79
2021/12/28 08:58:30;;;;;;;40.15;17.85;;;-8.40;39.30;;;-7.63;82.97;99752.84;4980979;28;129905;-79
2021/12/28 09:01:00;;;;;;;41.80;18.38;;;-8.40;38.20;;;-7.37;82.92;99753.31;4969118;28;120364;-80
2021/12/28 09:03:29;;;;;;;42.58;17.92;;;-8.30;38.90;;;-7.13;82.42;99754.78;4951863;28;115287;-79
2021/12/28 09:06:02;;;;;;;31.33;15.27;;;-8.20;39.20;;;-7.00;81.72;99752.22;4967622;28;129433;-78
2021/12/28 09:08:32;;;;;;;32.08;15.48;;;-8.00;37.50;;;-6.95;81.85;99760.41;4967532;28;129688;-79
2021/12/28 09:11:01;;;;;;;31.55;13.98;;;-8.00;36.70;;;-7.01;81.29;99755.88;4964704;28;119139;-79
2021/12/28 09:13:30;;;;;;;32.65;15.05;;;-8.00;35.40;;;-6.69;80.95;99756.31;4966146;28;115602;-79
2021/12/28 09:15:58;;;;;;;32.47;15.55;;;-7.80;37.80;;;-6.56;80.74;99759.06;4965186;28;130310;-79
2021/12/28 09:18:27;;;;;;;33.30;16.33;;;-7.80;38.00;;;-6.81;80.10;99760.50;4964955;28;129916;-79
2021/12/28 09:20:56;;;;;;;46.05;18.02;;;-7.90;33.50;;;-6.97;81.24;99754.47;4963608;28;118531;-81
2021/12/28 09:23:24;;;;;;;37.50;18.77;;;-8.00;32.10;;;-6.96;80.79;99756.13;4966641;28;115564;-78
2021/12/28 09:25:54;;;;;;;41.65;18.10;;;-8.00;32.10;;;-7.00;81.00;99746.94;4965338;28;128724;-79
2021/12/28 09:28:33;;;;;;;33.25;16.40;;;-8.10;31.80;;;-7.03;80.26;99749.97;4983531;28;128849;-77
2021/12/28 09:31:02;;;;;;;35.45;15.82;;;-8.10;31.80;;;-6.84;80.39;99756.41;4964314;28;120213;-79
2021/12/28 09:33:31;;;;;;;32.58;16.15;;;-8.00;32.10;;;-6.90;81.34;99757.19;4950676;28;114505;-78
2021/12/28 09:36:02;;;;;;;32.70;15.52;;;-7.90;31.50;;;-6.70;80.73;99762.59;4966249;28;130072;-79
2021/12/28 09:38:31;;;;;;;33.90;16.52;;;-7.90;32.90;;;-6.45;80.38;99764.81;4964549;28;129277;-79
2021/12/28 09:41:01;;;;;;;36.10;14.45;;;-7.70;35.40;;;-6.39;79.70;99758.75;4965406;28;118899;-79
2021/12/28 09:43:30;;;;;;;33.45;14.27;;;-7.70;32.10;;;-6.30;78.73;99760.22;4966824;28;117116;-79
2021/12/28 09:45:58;;;;;;;35.92;15.98;;;-7.60;29.00;;;-6.18;78.82;99766.59;4947653;28;128992;-80
2021/12/28 09:48:28;;;;;;;36.70;14.73;;;-7.60;31.80;;;-6.16;79.01;99764.56;4965772;28;129220;-80
2021/12/28 09:50:56;;;;;;;30.88;13.75;;;-7.50;29.40;;;-5.82;78.76;99765.50;4961299;28;118761;-78
2021/12/28 09:53:25;;;;;;;27.70;14.35;;;-7.30;31.10;;;-5.61;77.03;99761.09;4967005;28;114808;-79
2021/12/28 09:55:53;;;;;;;29.58;15.00;;;-7.20;30.00;;;-5.67;77.42;99757.44;4966634;28;128701;-78
2021/12/28 09:58:24;;;;;;;30.55;14.07;;;-7.20;29.00;;;-5.76;76.52;99774.47;4964762;28;129525;-80
2021/12/28 10:00:52;;;;;;;27.33;14.18;;;-7.20;25.20;;;-5.56;77.02;99769.25;4965017;28;119073;-79
2021/12/28 10:03:21;;;;;;;23.02;11.90;;;-7.20;28.20;;;-5.94;77.17;99767.06;4964942;28;116901;-78
2021/12/28 10:05:50;;;;;;;24.08;12.52;;;-7.30;23.50;;;-5.61;76.52;99761.09;4962896;28;129781;-79
2021/12/28 10:08:25;;;;;;;21.40;12.32;;;-7.20;24.80;;;-5.25;75.32;99765.22;4949148;28;129740;-80
2021/12/28 10:10:58;;;;;;;22.23;11.25;;;-6.90;25.50;;;-5.54;74.70;99761.94;4966668;28;118606;-79